Time;durP1;ratioP1;P1;durP2;ratioP2;P2;SDS_P1;SDS_P2;PMS_P1;PMS_P2;Temp;Humidity;BMP_temperature;BMP_pressure;BME280_temperature;BME280_humidity;BME280_pressure;Samples;Min_cycle;Max_cycle;Signal;HPM_P1;HPM_P2
2021/01/22 00:01:29;;;;;;;6.80;2.00;;;7.90;99.90;;;8.88;88.00;98835.78;5040020;28;20194;-73
2021/01/22 00:03:55;;;;;;;6.70;2.05;;;7.90;99.90;;;8.87;88.13;98831.47;5035625;28;20212;-73
2021/01/22 00:06:23;;;;;;;8.38;2.35;;;7.90;99.90;;;8.85;88.51;98828.16;5035015;28;20204;-74
2021/01/22 00:08:49;;;;;;;7.35;2.13;;;7.90;99.90;;;8.80;88.88;98826.75;5036012;28;20225;-71
2021/01/22 00:11:16;;;;;;;6.13;2.10;;;7.90;99.90;;;8.75;88.90;98814.00;5037682;28;20569;-73
2021/01/22 00:13:43;;;;;;;4.38;1.50;;;7.80;99.90;;;8.71;89.05;98812.50;5034903;28;20220;-73
2021/01/22 00:16:10;;;;;;;5.72;1.67;;;7.80;99.90;;;8.68;89.19;98807.47;5041307;28;20200;-72
2021/01/22 00:18:36;;;;;;;8.38;1.90;;;7.80;99.90;;;8.65;89.30;98802.47;5038817;28;20189;-71
2021/01/22 00:21:03;;;;;;;6.45;1.85;;;7.80;99.90;;;8.63;89.32;98785.22;5040406;28;20246;-70
2021/01/22 00:23:29;;;;;;;7.20;2.00;;;7.70;99.90;;;8.61;89.33;98784.47;5037118;28;20220;-73
2021/01/22 00:25:55;;;;;;;6.55;2.15;;;7.70;99.90;;;8.60;89.47;98775.00;5037427;28;20280;-74
2021/01/22 00:28:22;;;;;;;6.07;2.15;;;7.70;99.90;;;8.56;89.21;98771.72;5037725;28;20208;-74
2021/01/22 00:30:49;;;;;;;7.90;2.30;;;7.60;99.90;;;8.53;89.09;98765.84;5035299;28;20200;-70
2021/01/22 00:33:16;;;;;;;8.30;2.70;;;7.60;99.90;;;8.52;88.96;98756.38;5035765;28;20240;-73
2021/01/22 00:35:42;;;;;;;8.68;2.83;;;7.60;99.90;;;8.50;88.86;98758.22;5043659;28;20212;-73
2021/01/22 00:38:09;;;;;;;8.98;2.47;;;7.60;99.90;;;8.50;88.45;98753.88;5044230;28;20185;-73
2021/01/22 00:40:35;;;;;;;7.57;2.28;;;7.60;99.90;;;8.51;87.85;98746.88;5048836;28;20598;-74
2021/01/22 00:43:01;;;;;;;9.48;2.80;;;7.60;99.90;;;8.49;87.57;98731.31;5035372;28;20249;-73
2021/01/22 00:45:28;;;;;;;8.25;2.70;;;7.60;99.90;;;8.55;87.02;98727.50;5051324;28;20193;-74
2021/01/22 00:47:55;;;;;;;8.00;2.53;;;7.70;99.90;;;8.57;86.68;98718.66;5044941;28;20208;-73
2021/01/22 00:50:22;;;;;;;8.43;2.72;;;7.70;99.90;;;8.59;86.13;98714.19;5036321;28;20197;-74
2021/01/22 00:52:49;;;;;;;7.95;2.33;;;7.80;99.90;;;8.65;85.88;98726.84;5031347;28;20189;-74
2021/01/22 00:55:15;;;;;;;7.75;2.55;;;7.90;99.90;;;8.69;85.01;98720.50;5043664;28;20298;-73
2021/01/22 00:57:51;;;;;;;7.18;2.35;;;7.90;99.90;;;8.76;84.75;98727.00;5045340;28;20219;-74
2021/01/22 01:00:20;;;;;;;8.25;2.67;;;8.00;99.90;;;8.82;84.25;98720.59;5053760;28;20582;-74
2021/01/22 01:02:59;;;;;;;8.35;2.40;;;8.10;99.90;;;8.91;83.79;98713.97;5036924;28;20355;-72
2021/01/22 01:05:28;;;;;;;8.65;2.47;;;8.20;99.90;;;8.98;82.95;98705.63;5035018;28;20742;-72
2021/01/22 01:07:56;;;;;;;8.18;2.30;;;8.20;99.90;;;9.04;82.92;98705.25;5044370;28;20196;-73
2021/01/22 01:10:33;;;;;;;5.97;1.77;;;8.30;99.90;;;9.13;82.55;98703.81;5040461;28;20192;-70
2021/01/22 01:13:31;;;;;;;7.43;2.10;;;8.40;99.90;;;9.19;82.09;98706.88;5035068;28;20216;-73
2021/01/22 01:16:16;;;;;;;5.72;1.80;;;8.50;99.90;;;9.24;81.72;98702.19;5036192;28;20196;-73
2021/01/22 01:18:43;;;;;;;5.72;1.90;;;8.60;99.90;;;9.28;81.55;98703.66;5030256;28;20251;-71
2021/01/22 01:21:09;;;;;;;5.03;1.70;;;8.60;99.90;;;9.34;81.13;98702.44;5045205;28;20197;-73
2021/01/22 01:23:36;;;;;;;5.63;1.77;;;8.70;99.90;;;9.41;80.95;98699.31;5047915;28;20285;-73
2021/01/22 01:26:02;;;;;;;5.53;1.60;;;8.80;99.90;;;9.48;80.97;98699.72;5045611;28;21071;-72
2021/01/22 01:28:28;;;;;;;4.75;1.60;;;8.90;99.90;;;9.51;81.23;98689.94;5043253;28;20205;-72
2021/01/22 01:30:54;;;;;;;5.20;1.40;;;8.90;99.90;;;9.58;81.14;98690.34;5045837;28;20227;-71
2021/01/22 01:33:21;;;;;;;4.72;1.38;;;9.00;99.90;;;9.61;80.94;98680.53;5039070;28;20693;-71
2021/01/22 01:35:51;;;;;;;4.28;1.38;;;9.00;99.90;;;9.66;81.38;98688.09;5045200;28;20646;-73
2021/01/22 01:38:17;;;;;;;3.78;1.20;;;9.00;99.90;;;9.71;80.97;98673.78;5041190;28;20238;-72
2021/01/22 01:40:44;;;;;;;3.33;1.30;;;9.00;99.90;;;9.74;81.35;98670.13;5044361;28;20216;-72
2021/01/22 01:43:10;;;;;;;3.55;1.15;;;9.10;99.90;;;9.79;80.87;98655.84;5043106;28;20220;-72
2021/01/22 01:45:39;;;;;;;3.03;1.05;;;9.10;99.90;;;9.86;80.94;98662.28;5043737;28;20243;-71
2021/01/22 01:48:07;;;;;;;2.40;0.80;;;9.20;99.90;;;9.92;80.60;98661.88;5042156;28;20258;-71
2021/01/22 01:50:34;;;;;;;4.00;1.10;;;9.20;99.90;;;9.96;80.13;98660.72;5039384;28;20193;-72
2021/01/22 01:53:03;;;;;;;1.77;0.98;;;9.30;99.90;;;10.02;80.32;98659.47;5031057;28;20232;-73
2021/01/22 01:55:30;;;;;;;2.58;0.98;;;9.30;99.90;;;10.09;79.82;98659.00;5036866;28;20649;-73
2021/01/22 01:57:56;;;;;;;4.43;0.90;;;9.40;99.90;;;10.16;79.70;98664.63;5035355;28;20251;-72
2021/01/22 02:00:23;;;;;;;3.63;1.13;;;9.50;99.90;;;10.22;79.54;98655.50;5040749;28;20217;-73
2021/01/22 02:02:52;;;;;;;2.88;1.00;;;9.60;99.90;;;10.25;79.28;98656.13;5041358;28;20228;-72
2021/01/22 02:05:19;;;;;;;3.47;0.85;;;9.60;99.90;;;10.28;79.10;98639.41;5044185;28;20189;-71
2021/01/22 02:07:45;;;;;;;2.25;0.80;;;9.60;99.90;;;10.37;78.85;98646.59;5044444;28;20242;-72
2021/01/22 02:10:14;;;;;;;2.70;0.90;;;9.70;99.90;;;10.42;78.47;98647.09;5044437;28;20681;-72
2021/01/22 02:12:42;;;;;;;2.17;0.70;;;9.80;99.90;;;10.47;77.97;98645.84;5040799;28;20189;-71
2021/01/22 02:15:13;;;;;;;2.15;0.85;;;9.90;99.90;;;10.55;78.08;98647.94;5048818;28;20189;-71
2021/01/22 02:17:41;;;;;;;2.88;0.80;;;10.00;99.90;;;10.61;77.33;98642.25;5044072;28;20196;-72
2021/01/22 02:20:29;;;;;;;2.35;0.82;;;10.00;99.90;;;10.64;77.25;98618.47;5049430;28;20205;-72
2021/01/22 02:22:56;;;;;;;2.92;0.90;;;10.00;99.90;;;10.65;76.72;98623.59;5047481;28;20217;-71
2021/01/22 02:25:32;;;;;;;2.67;0.93;;;10.00;99.90;;;10.68;76.89;98599.88;5049375;28;20235;-71
2021/01/22 02:28:00;;;;;;;4.13;0.80;;;10.10;99.90;;;10.72;76.34;98613.53;5048179;28;20196;-71
2021/01/22 02:30:26;;;;;;;3.40;0.80;;;10.10;99.90;;;10.75;76.31;98608.09;5039515;28;20198;-71
2021/01/22 02:32:55;;;;;;;1.45;0.60;;;10.20;99.90;;;10.78;76.22;98611.34;5052127;28;20219;-71
2021/01/22 02:35:24;;;;;;;4.15;0.77;;;10.20;99.90;;;10.79;76.18;98599.06;5044826;28;20219;-72
2021/01/22 02:37:53;;;;;;;1.30;0.70;;;10.20;99.90;;;10.83;75.76;98617.06;5048502;28;20736;-71
2021/01/22 02:40:21;;;;;;;2.10;0.63;;;10.20;99.90;;;10.84;75.69;98604.78;5050005;28;20697;-71
2021/01/22 02:42:51;;;;;;;2.33;0.70;;;10.20;99.90;;;10.87;75.58;98596.72;5044710;28;20637;-71
2021/01/22 02:45:19;;;;;;;2.63;1.10;;;10.20;99.90;;;10.88;75.06;98593.16;5051782;28;20189;-71
2021/01/22 02:47:48;;;;;;;2.53;0.63;;;10.30;99.90;;;10.89;75.03;98593.06;5040753;28;20650;-72
2021/01/22 02:50:17;;;;;;;3.03;0.60;;;10.30;99.90;;;10.91;74.71;98587.72;5046949;28;20548;-71
2021/01/22 02:52:43;;;;;;;1.45;0.70;;;10.30;99.90;;;10.93;74.38;98581.44;5048779;28;20201;-71
2021/01/22 02:55:12;;;;;;;0.88;0.60;;;10.30;99.90;;;10.93;74.07;98570.97;5045881;28;20255;-72
2021/01/22 02:57:49;;;;;;;1.95;0.50;;;10.30;99.90;;;10.92;74.07;98584.13;5044662;28;20204;-71
2021/01/22 03:00:24;;;;;;;2.70;0.75;;;10.30;99.90;;;10.91;73.72;98585.09;5044122;28;20211;-70
2021/01/22 03:02:59;;;;;;;3.30;0.75;;;10.20;99.90;;;10.89;73.64;98559.03;5048231;28;20695;-71
2021/01/22 03:05:31;;;;;;;1.83;0.57;;;10.20;99.90;;;10.89;73.73;98584.38;5040407;28;20275;-68
2021/01/22 03:08:04;;;;;;;2.00;0.70;;;10.20;99.90;;;10.88;73.17;98577.47;5046186;28;20216;-71
2021/01/22 03:10:32;;;;;;;2.28;0.80;;;10.20;99.90;;;10.90;72.88;98559.88;5047164;28;20203;-70
2021/01/22 03:13:01;;;;;;;1.77;0.80;;;10.20;99.90;;;10.88;72.62;98557.38;5044356;28;20213;-72
2021/01/22 03:15:29;;;;;;;1.15;0.52;;;10.10;99.90;;;10.88;72.45;98580.09;5045826;28;20191;-74
2021/01/22 03:18:11;;;;;;;2.15;0.80;;;10.10;99.90;;;10.90;72.25;98552.03;5064820;28;20760;-71
2021/01/22 03:20:37;;;;;;;1.67;0.65;;;10.20;99.90;;;10.93;71.97;98567.50;5044755;28;20209;-69
2021/01/22 03:23:04;;;;;;;1.23;0.50;;;10.20;99.90;;;10.95;71.51;98573.47;5046942;28;20219;-71
2021/01/22 03:25:31;;;;;;;1.27;0.60;;;10.20;99.90;;;10.97;71.49;98558.47;5046089;28;20197;-71
2021/01/22 03:27:57;;;;;;;4.53;0.82;;;10.30;99.90;;;10.99;71.03;98554.78;5046854;28;20192;-72
2021/01/22 03:30:24;;;;;;;3.58;0.70;;;10.30;99.90;;;11.01;70.78;98554.69;5048037;28;20246;-71
2021/01/22 03:32:51;;;;;;;2.47;0.50;;;10.30;99.90;;;11.01;70.77;98563.38;5043796;28;20208;-72
2021/01/22 03:35:18;;;;;;;2.53;0.80;;;10.30;99.90;;;10.99;70.75;98556.56;5042413;28;20227;-71
2021/01/22 03:37:44;;;;;;;1.88;0.70;;;10.30;99.90;;;10.98;70.43;98566.22;5041141;28;20209;-71
2021/01/22 03:40:12;;;;;;;1.27;0.60;;;10.30;99.90;;;10.97;70.67;98548.00;5047340;28;20205;-72
2021/01/22 03:42:39;;;;;;;2.90;0.88;;;10.30;99.90;;;10.95;70.33;98547.28;5045204;28;20231;-71
2021/01/22 03:45:07;;;;;;;3.15;0.80;;;10.30;99.90;;;10.94;70.30;98537.75;5047792;28;20215;-71
2021/01/22 03:47:33;;;;;;;3.10;0.70;;;10.20;99.90;;;10.92;70.35;98529.19;5037274;28;20240;-70
2021/01/22 03:50:00;;;;;;;2.35;0.80;;;10.20;99.90;;;10.87;70.35;98540.00;5056063;28;20197;-71
2021/01/22 03:52:26;;;;;;;2.95;1.42;;;10.10;99.90;;;10.87;70.63;98533.94;5047049;28;20192;-70
2021/01/22 03:54:53;;;;;;;1.50;0.52;;;10.10;99.90;;;10.89;69.85;98539.88;5048664;28;20220;-72
2021/01/22 03:57:19;;;;;;;4.25;0.77;;;10.20;99.90;;;10.88;69.86;98525.16;5041530;28;20685;-71
2021/01/22 03:59:45;;;;;;;3.17;0.90;;;10.20;99.90;;;10.88;69.96;98523.38;5042532;28;20669;-72
2021/01/22 04:02:12;;;;;;;1.95;0.55;;;10.20;99.90;;;10.86;70.09;98532.28;5042277;28;20197;-71
2021/01/22 04:04:38;;;;;;;1.25;0.70;;;10.10;99.90;;;10.84;69.74;98523.69;5045659;28;20312;-71
2021/01/22 04:07:06;;;;;;;1.55;0.50;;;10.10;99.90;;;10.83;69.90;98527.28;5045877;28;20212;-71
2021/01/22 04:09:32;;;;;;;1.45;0.52;;;10.10;99.90;;;10.83;69.48;98516.81;5042335;28;20219;-72
2021/01/22 04:11:58;;;;;;;1.77;0.60;;;10.10;99.90;;;10.81;69.47;98509.06;5046477;28;20193;-72
2021/01/22 04:14:25;;;;;;;1.85;0.80;;;10.10;99.90;;;10.81;69.24;98518.69;5045284;28;20208;-71
2021/01/22 04:16:55;;;;;;;2.70;0.73;;;10.10;99.90;;;10.81;69.30;98503.84;5043187;28;20561;-71
2021/01/22 04:19:21;;;;;;;2.83;0.90;;;10.10;99.90;;;10.84;68.87;98502.75;5044393;28;20203;-71
2021/01/22 04:21:47;;;;;;;1.63;0.65;;;10.20;99.90;;;10.87;68.82;98500.75;5043345;28;20254;-71
2021/01/22 04:24:14;;;;;;;1.98;0.70;;;10.20;99.90;;;10.89;68.84;98500.63;5048709;28;20817;-72
2021/01/22 04:26:41;;;;;;;2.55;0.80;;;10.20;99.90;;;10.90;68.24;98502.31;5046171;28;20262;-71
2021/01/22 04:29:07;;;;;;;3.03;0.90;;;10.20;99.90;;;10.92;68.04;98492.56;5037511;28;20262;-71
2021/01/22 04:31:33;;;;;;;2.38;0.70;;;10.30;99.90;;;10.94;67.89;98488.03;5046550;28;20247;-72
2021/01/22 04:34:00;;;;;;;2.15;0.80;;;10.40;99.90;;;10.95;67.70;98490.53;5046316;28;20221;-70
2021/01/22 04:36:26;;;;;;;4.57;0.90;;;10.40;99.90;;;10.94;67.91;98482.81;5043358;28;20189;-70
2021/01/22 04:38:52;;;;;;;1.67;0.40;;;10.40;99.90;;;10.92;68.23;98482.94;5040055;28;20193;-71
2021/01/22 04:41:19;;;;;;;1.88;0.68;;;10.30;99.90;;;10.89;68.08;98479.69;5043224;28;20216;-69
2021/01/22 04:43:45;;;;;;;4.75;1.10;;;10.30;99.90;;;10.89;67.94;98480.53;5042873;28;20828;-71
2021/01/22 04:46:12;;;;;;;3.03;0.88;;;10.20;99.90;;;10.89;68.06;98470.09;5037680;28;20201;-71
2021/01/22 04:48:39;;;;;;;2.75;0.88;;;10.20;99.90;;;10.89;67.67;98466.63;5040341;28;20205;-71
2021/01/22 04:51:06;;;;;;;1.73;0.70;;;10.20;99.90;;;10.85;67.69;98462.59;5041838;28;20661;-72
2021/01/22 04:53:35;;;;;;;1.85;0.63;;;10.20;99.90;;;10.82;67.77;98462.78;5059151;28;20594;-72
2021/01/22 04:56:05;;;;;;;3.03;0.57;;;10.20;99.90;;;10.83;67.55;98443.56;5044903;28;20205;-72
2021/01/22 04:58:39;;;;;;;2.08;0.63;;;10.10;99.90;;;10.80;67.51;98449.81;5041767;28;20272;-72
2021/01/22 05:01:06;;;;;;;3.25;0.98;;;10.10;99.90;;;10.81;67.71;98456.75;5045945;28;20209;-72
2021/01/22 05:03:33;;;;;;;3.88;0.90;;;10.10;99.90;;;10.78;67.70;98443.91;5041074;28;20213;-71
2021/01/22 05:05:59;;;;;;;2.83;0.80;;;10.10;99.90;;;10.78;67.89;98445.69;5045159;28;20200;-72
2021/01/22 05:08:26;;;;;;;1.83;0.70;;;10.10;99.90;;;10.77;67.47;98436.16;5037979;28;20188;-72
2021/01/22 05:10:53;;;;;;;2.53;0.93;;;10.10;99.90;;;10.74;67.77;98437.22;5041992;28;20193;-72
2021/01/22 05:13:20;;;;;;;2.28;0.80;;;10.00;99.90;;;10.73;67.61;98445.19;5037047;28;20625;-71
2021/01/22 05:16:13;;;;;;;2.08;0.70;;;10.00;99.90;;;10.70;67.92;98427.94;5042542;28;20299;-71
2021/01/22 05:18:40;;;;;;;2.80;0.90;;;10.00;99.90;;;10.66;67.84;98426.50;5039030;28;20197;-71
2021/01/22 05:21:08;;;;;;;1.88;0.55;;;10.00;99.90;;;10.65;68.11;98419.59;5043771;28;20235;-72
2021/01/22 05:23:38;;;;;;;5.05;0.90;;;9.90;99.90;;;10.64;68.06;98417.09;5039188;28;20212;-70
2021/01/22 05:26:06;;;;;;;3.60;1.10;;;9.90;99.90;;;10.66;67.96;98421.28;5040488;28;20196;-71
2021/01/22 05:28:39;;;;;;;2.38;0.70;;;9.90;99.90;;;10.66;67.75;98433.50;5051853;28;20225;-71
2021/01/22 05:31:07;;;;;;;3.10;0.90;;;9.90;99.90;;;10.64;67.82;98417.09;5043649;28;20196;-71
2021/01/22 05:33:34;;;;;;;1.85;1.00;;;9.90;99.90;;;10.62;67.97;98409.38;5044650;28;20225;-69
2021/01/22 05:36:22;;;;;;;2.95;1.08;;;9.90;99.90;;;10.59;67.90;98421.84;5038130;28;20254;-71
2021/01/22 05:38:49;;;;;;;1.92;0.75;;;9.90;99.90;;;10.60;67.61;98405.22;5048327;28;20212;-71
2021/01/22 05:41:15;;;;;;;4.15;0.80;;;9.90;99.90;;;10.62;67.79;98419.84;5038250;28;20209;-72
2021/01/22 05:43:42;;;;;;;2.90;0.70;;;9.90;99.90;;;10.63;67.88;98420.66;5032980;28;20268;-72
2021/01/22 05:46:14;;;;;;;2.30;0.80;;;10.00;99.90;;;10.66;67.65;98412.59;5044523;28;20208;-72
2021/01/22 05:48:42;;;;;;;2.25;0.70;;;10.00;99.90;;;10.68;67.49;98418.53;5041842;28;20695;-72
2021/01/22 05:51:09;;;;;;;1.38;0.70;;;10.00;99.90;;;10.69;67.45;98414.97;5061602;28;20653;-71
2021/01/22 05:53:45;;;;;;;3.55;0.60;;;10.10;99.90;;;10.71;67.43;98413.06;5046051;28;20268;-71
2021/01/22 05:56:13;;;;;;;1.55;0.70;;;10.10;99.90;;;10.70;67.58;98427.94;5041230;28;20192;-71
2021/01/22 05:58:43;;;;;;;1.80;0.68;;;10.10;99.90;;;10.69;67.47;98409.75;5037702;28;20188;-74
2021/01/22 06:01:12;;;;;;;3.25;0.80;;;10.00;99.90;;;10.66;67.40;98409.97;5040409;28;20213;-72
2021/01/22 06:03:41;;;;;;;2.13;0.70;;;9.90;99.90;;;10.65;67.83;98416.97;5046835;28;20220;-71
2021/01/22 06:06:09;;;;;;;2.90;0.70;;;9.90;99.90;;;10.64;67.59;98396.16;5047167;28;20608;-71
2021/01/22 06:08:51;;;;;;;2.00;0.85;;;9.90;99.90;;;10.66;67.61;98410.81;5048950;28;20572;-72
2021/01/22 06:11:22;;;;;;;4.63;1.00;;;9.90;99.90;;;10.65;67.80;98406.53;5046842;28;20197;-68
2021/01/22 06:13:51;;;;;;;3.15;0.98;;;9.90;99.90;;;10.64;67.81;98386.56;5044813;28;20209;-72
2021/01/22 06:16:19;;;;;;;2.85;0.85;;;9.90;99.90;;;10.62;67.49;98393.69;5048029;28;20200;-70
2021/01/22 06:18:49;;;;;;;3.05;1.00;;;9.90;99.90;;;10.61;68.04;98396.41;5041107;28;20239;-71
2021/01/22 06:21:20;;;;;;;4.43;0.88;;;9.90;99.90;;;10.61;67.57;98399.03;5042446;28;20216;-72
2021/01/22 06:23:48;;;;;;;4.78;0.80;;;9.90;99.90;;;10.62;67.87;98408.53;5050688;28;20581;-71
2021/01/22 06:26:15;;;;;;;4.55;1.40;;;9.90;99.90;;;10.63;67.87;98399.75;5045943;28;20851;-72
2021/01/22 06:28:43;;;;;;;3.22;0.80;;;9.90;99.90;;;10.64;67.81;98396.16;5046782;28;20205;-72
2021/01/22 06:31:10;;;;;;;2.55;0.80;;;9.90;99.90;;;10.64;67.83;98396.16;5041243;28;20207;-73
2021/01/22 06:33:37;;;;;;;1.45;0.60;;;9.90;99.90;;;10.63;67.66;98394.53;5045648;28;20696;-71
2021/01/22 06:36:07;;;;;;;2.08;0.75;;;9.90;99.90;;;10.63;68.13;98391.91;5049356;28;20201;-71
2021/01/22 06:38:34;;;;;;;2.00;0.63;;;9.90;99.90;;;10.61;68.10;98388.56;5043910;28;20861;-72
2021/01/22 06:41:01;;;;;;;2.35;1.00;;;9.90;99.90;;;10.59;68.20;98393.91;5066262;28;20761;-74
2021/01/22 06:43:29;;;;;;;4.00;0.98;;;9.90;99.90;;;10.56;68.48;98402.00;5040898;28;20243;-71
2021/01/22 06:46:06;;;;;;;2.30;0.88;;;9.80;99.90;;;10.54;68.46;98390.81;5046525;28;20213;-70
2021/01/22 06:48:55;;;;;;;2.58;0.70;;;9.80;99.90;;;10.52;68.66;98397.09;5043554;28;20204;-72
2021/01/22 06:51:24;;;;;;;1.85;0.80;;;9.80;99.90;;;10.53;68.70;98396.16;5051122;28;20247;-74
2021/01/22 06:54:08;;;;;;;6.82;2.17;;;9.70;99.90;;;10.51;68.59;98395.44;5051320;28;20220;-73
2021/01/22 06:56:37;;;;;;;9.43;2.63;;;9.70;99.90;;;10.50;68.81;98404.25;5049194;28;20196;-72
2021/01/22 06:59:37;;;;;;;10.95;2.60;;;9.80;99.90;;;10.51;68.81;98398.06;5049896;28;20222;-73
2021/01/22 07:02:04;;;;;;;7.38;1.85;;;9.80;99.90;;;10.50;68.64;98404.25;5048319;28;20197;-73
2021/01/22 07:04:40;;;;;;;5.38;1.60;;;9.70;99.90;;;10.51;68.81;98401.50;5044469;28;20251;-72
2021/01/22 07:07:08;;;;;;;11.65;3.47;;;9.80;99.90;;;10.52;68.94;98411.00;5040251;28;20266;-71
2021/01/22 07:09:52;;;;;;;9.20;2.70;;;9.80;99.90;;;10.51;68.87;98406.75;5045923;28;20255;-72
2021/01/22 07:12:39;;;;;;;9.57;2.97;;;9.80;99.90;;;10.49;69.11;98407.78;5044647;28;20250;-74
2021/01/22 07:15:28;;;;;;;6.72;1.77;;;9.70;99.90;;;10.50;69.27;98409.47;5043916;28;20188;-73
2021/01/22 07:18:00;;;;;;;5.35;1.48;;;9.80;99.90;;;10.51;69.12;98408.50;5029129;28;20637;-71
2021/01/22 07:20:29;;;;;;;5.05;1.05;;;9.80;99.90;;;10.51;68.99;98404.13;5039365;28;20255;-72
2021/01/22 07:22:59;;;;;;;4.00;1.30;;;9.90;99.90;;;10.53;69.09;98407.47;5040268;28;20298;-72
2021/01/22 07:25:35;;;;;;;4.57;1.60;;;9.80;99.90;;;10.54;69.40;98405.66;5037347;28;20200;-72
2021/01/22 07:28:22;;;;;;;5.20;1.10;;;9.90;99.90;;;10.56;69.05;98412.47;5038383;28;20189;-76
2021/01/22 07:30:50;;;;;;;3.35;1.10;;;9.90;99.90;;;10.57;69.28;98413.25;5039987;28;20200;-75
2021/01/22 07:33:36;;;;;;;2.97;0.93;;;9.90;99.90;;;10.63;69.02;98412.81;5051038;28;20221;-74
2021/01/22 07:36:06;;;;;;;2.63;0.90;;;10.00;99.90;;;10.65;68.98;98418.78;5044242;28;20662;-73
2021/01/22 07:38:35;;;;;;;1.98;0.70;;;10.00;99.90;;;10.67;68.94;98411.63;5047696;28;20595;-73
2021/01/22 07:41:02;;;;;;;3.45;1.10;;;10.00;99.90;;;10.66;69.17;98415.22;5041162;28;21088;-73
2021/01/22 07:43:29;;;;;;;3.67;1.05;;;10.00;99.90;;;10.69;68.92;98425.44;5042724;28;20240;-73
2021/01/22 07:46:07;;;;;;;7.57;1.63;;;10.10;99.90;;;10.72;69.05;98425.19;5040836;28;20235;-72
2021/01/22 07:48:34;;;;;;;5.43;1.38;;;10.10;99.90;;;10.72;69.14;98430.44;5041890;28;20211;-72
2021/01/22 07:51:00;;;;;;;7.32;1.60;;;10.10;99.90;;;10.74;68.92;98432.00;5043821;28;20735;-74
2021/01/22 07:53:27;;;;;;;5.45;1.10;;;10.10;99.90;;;10.78;69.30;98427.38;5043053;28;20216;-74
2021/01/22 07:55:55;;;;;;;3.10;1.10;;;10.20;99.90;;;10.80;68.87;98417.63;5037958;28;20193;-75
2021/01/22 07:58:21;;;;;;;6.50;1.10;;;10.20;99.90;;;10.83;69.15;98425.25;5039822;28;20266;-74
2021/01/22 08:00:48;;;;;;;6.13;0.95;;;10.30;99.90;;;10.88;68.97;98433.56;5042953;28;20782;-74
2021/01/22 08:03:15;;;;;;;3.75;1.08;;;10.30;99.90;;;10.88;68.96;98446.66;5042528;28;20213;-75
2021/01/22 08:05:41;;;;;;;5.53;1.05;;;10.40;99.90;;;10.94;69.01;98440.94;5030334;28;20202;-73
2021/01/22 08:08:19;;;;;;;4.50;1.40;;;10.40;99.90;;;10.98;68.65;98437.16;5046369;28;20196;-73
2021/01/22 08:10:47;;;;;;;3.22;0.88;;;10.40;99.90;;;11.01;68.46;98447.38;5051856;28;20220;-72
2021/01/22 08:13:15;;;;;;;4.05;0.80;;;10.50;99.90;;;11.05;68.45;98444.41;5033715;28;20236;-75
2021/01/22 08:15:43;;;;;;;4.43;1.00;;;10.50;99.90;;;11.08;68.61;98448.59;5036549;28;20284;-73
2021/01/22 08:18:09;;;;;;;3.65;1.10;;;10.60;99.90;;;11.10;68.25;98444.88;5058102;28;20193;-73
2021/01/22 08:20:36;;;;;;;4.88;1.30;;;10.60;99.90;;;11.15;68.47;98460.25;5049488;28;20228;-75
2021/01/22 08:23:02;;;;;;;6.20;1.10;;;10.70;99.90;;;11.16;68.18;98451.44;5041871;28;20216;-69
2021/01/22 08:25:31;;;;;;;3.92;0.98;;;10.70;99.90;;;11.19;68.31;98466.91;5038382;28;20684;-75
2021/01/22 08:27:59;;;;;;;5.47;1.20;;;10.70;99.90;;;11.25;68.28;98459.41;5043068;28;21115;-70
2021/01/22 08:30:27;;;;;;;4.85;1.10;;;10.70;99.90;;;11.27;68.29;98475.00;5045320;28;20200;-72
2021/01/22 08:32:55;;;;;;;3.25;1.00;;;10.70;99.90;;;11.26;68.13;98478.59;5037980;28;20197;-71
2021/01/22 08:35:23;;;;;;;2.85;1.05;;;10.80;99.90;;;11.27;68.14;98494.19;5038040;28;20193;-71
2021/01/22 08:37:52;;;;;;;3.83;1.00;;;10.80;99.90;;;11.28;68.32;98502.88;5040622;28;20666;-75
2021/01/22 08:40:20;;;;;;;3.83;1.30;;;10.80;99.90;;;11.22;68.89;98567.00;5042735;28;20615;-73
2021/01/22 08:42:59;;;;;;;2.17;0.75;;;10.70;99.90;;;10.92;71.89;98589.38;5042922;28;20190;-73
2021/01/22 08:45:26;;;;;;;2.65;0.70;;;10.40;99.90;;;10.40;74.63;98617.63;5032373;28;20216;-74
2021/01/22 08:47:53;;;;;;;3.80;0.90;;;9.90;99.90;;;9.82;76.95;98610.38;5040958;28;20197;-74
2021/01/22 08:50:21;;;;;;;3.72;0.75;;;9.40;99.90;;;9.37;79.20;98613.47;5042536;28;20212;-74
2021/01/22 08:53:03;;;;;;;3.15;0.77;;;8.90;99.90;;;9.06;81.46;98629.50;5041275;28;20197;-73
2021/01/22 08:55:29;;;;;;;2.35;0.70;;;8.60;99.90;;;8.85;82.49;98636.94;5039234;28;20196;-72
2021/01/22 08:58:00;;;;;;;3.25;0.75;;;8.40;99.90;;;8.70;83.98;98632.72;5043046;28;20226;-74
2021/01/22 09:00:28;;;;;;;2.15;0.70;;;8.30;99.90;;;8.58;84.78;98644.75;5044008;28;20209;-73
2021/01/22 09:02:56;;;;;;;2.75;0.68;;;8.20;99.90;;;8.47;85.38;98649.78;5038977;28;20225;-73
2021/01/22 09:05:23;;;;;;;3.25;0.70;;;8.00;99.90;;;8.39;86.01;98651.22;5032404;28;20280;-74
2021/01/22 09:08:06;;;;;;;3.70;0.90;;;7.90;99.90;;;8.33;86.22;98660.25;5041537;28;20208;-74
2021/01/22 09:10:32;;;;;;;1.88;0.40;;;7.90;99.90;;;8.29;86.39;98666.56;5038299;28;20193;-73
2021/01/22 09:13:10;;;;;;;5.85;0.90;;;7.80;99.90;;;8.30;86.80;98670.03;5041558;28;20221;-73
2021/01/22 09:15:37;;;;;;;8.88;1.67;;;7.70;99.90;;;8.30;86.99;98676.06;5033151;28;20196;-71
2021/01/22 09:18:19;;;;;;;4.93;1.30;;;7.70;99.90;;;8.32;86.98;98674.19;5033897;28;20246;-74
2021/01/22 09:20:57;;;;;;;4.65;0.98;;;7.70;99.90;;;8.34;87.11;98687.16;5046546;28;20228;-73
2021/01/22 09:23:23;;;;;;;2.42;0.75;;;7.70;99.90;;;8.33;87.03;98686.31;5041122;28;20777;-73
2021/01/22 09:25:49;;;;;;;4.78;1.00;;;7.70;99.90;;;8.33;87.31;98688.06;5039326;28;20238;-71
2021/01/22 09:28:15;;;;;;;7.63;1.25;;;7.70;99.90;;;8.38;87.37;98696.44;5039059;28;20197;-73
2021/01/22 09:30:42;;;;;;;3.85;1.10;;;7.80;99.90;;;8.43;87.73;98704.81;5051605;28;20685;-72
2021/01/22 09:33:11;;;;;;;3.20;0.80;;;7.80;99.90;;;8.45;87.65;98702.94;5037850;28;20657;-73
2021/01/22 09:35:38;;;;;;;4.47;0.95;;;7.90;99.90;;;8.51;88.13;98700.78;5032517;28;20193;-73
2021/01/22 09:38:04;;;;;;;4.40;0.90;;;7.90;99.90;;;8.55;87.58;98706.66;5037089;28;20725;-70
2021/01/22 09:40:30;;;;;;;2.85;0.68;;;7.90;99.90;;;8.54;87.80;98705.81;5039809;28;20224;-72
2021/01/22 09:42:57;;;;;;;2.92;0.90;;;7.90;99.90;;;8.51;87.89;98716.44;5039647;28;20702;-73
2021/01/22 09:45:23;;;;;;;4.43;0.80;;;7.90;99.90;;;8.52;87.71;98725.09;5045555;28;20227;-72
2021/01/22 09:47:50;;;;;;;3.17;0.90;;;7.90;99.90;;;8.56;87.50;98731.78;5038824;28;20216;-74
2021/01/22 09:50:18;;;;;;;2.95;0.80;;;7.90;99.90;;;8.57;87.63;98739.50;5036874;28;20201;-71
2021/01/22 09:52:45;;;;;;;3.45;0.80;;;7.90;99.90;;;8.51;87.24;98744.25;5038762;28;20408;-72
2021/01/22 09:55:15;;;;;;;5.82;1.38;;;7.80;99.90;;;8.48;86.73;98744.44;5038027;28;20200;-73
2021/01/22 09:57:42;;;;;;;4.15;0.98;;;7.80;99.90;;;8.48;86.62;98736.63;5033890;28;20621;-73
2021/01/22 10:00:12;;;;;;;1.90;0.50;;;7.80;99.90;;;8.45;86.35;98737.66;5040395;28;20210;-73
2021/01/22 10:02:38;;;;;;;5.55;1.17;;;7.80;99.90;;;8.45;86.25;98734.22;5032623;28;20193;-73
2021/01/22 10:05:07;;;;;;;4.00;0.70;;;7.80;99.90;;;8.49;86.01;98720.09;5039320;28;20200;-72
2021/01/22 10:07:33;;;;;;;2.92;0.95;;;7.80;99.90;;;8.52;85.97;98723.31;5044726;28;20215;-73
2021/01/22 10:09:59;;;;;;;4.10;1.20;;;7.90;99.90;;;8.57;85.52;98723.88;5040443;28;20207;-73
2021/01/22 10:12:26;;;;;;;2.97;0.80;;;7.90;99.90;;;8.61;85.13;98751.44;5052758;28;20204;-73
2021/01/22 10:14:52;;;;;;;3.92;1.10;;;8.00;99.90;;;8.65;85.08;98749.47;5031663;28;20724;-71
2021/01/22 10:17:19;;;;;;;3.45;0.95;;;8.10;99.90;;;8.66;85.01;98767.63;5039447;28;20662;-73
2021/01/22 10:19:45;;;;;;;2.17;0.70;;;8.10;99.90;;;8.67;84.65;98758.84;5039158;28;20225;-73
2021/01/22 10:22:12;;;;;;;1.60;0.73;;;8.10;99.90;;;8.68;84.78;98760.56;5040617;28;20288;-73
2021/01/22 10:24:38;;;;;;;2.50;0.52;;;8.10;99.90;;;8.68;84.67;98778.81;5035940;28;20723;-71
2021/01/22 10:27:05;;;;;;;2.20;0.60;;;8.10;99.90;;;8.64;83.95;98789.53;5040511;28;20634;-69
2021/01/22 10:29:31;;;;;;;3.00;0.75;;;8.10;99.90;;;8.58;83.77;98785.50;5038359;28;20276;-76
2021/01/22 10:31:57;;;;;;;1.23;0.30;;;8.10;99.90;;;8.52;83.35;98783.25;5044279;28;20208;-75
2021/01/22 10:34:23;;;;;;;2.47;0.80;;;8.00;99.90;;;8.51;83.34;98794.63;5035806;28;20221;-75